Southgate, MI (48195)

11:21 EDT le 28 septembre 2016 (GMT -0400)
Southgate | | Change Station

Alt. 587 ft 42.21 °N, 83.19 °W | Updated 3 minutes ago

Couvert
Couvert
58.8 ° F
Paraît 58.8 ° F
N
0.0
Vent Variable Vent de SSO
Gusts 0.0 mph

Aujourd'hui
Haut(e) -- | Bas -- ° F
--% Risque de précip.
Hier
Haut(e) -- | Bas -- ° F
Precip. -- pouce
Pression 29.90 pouce
Visibilité 7.0 Miles terrestres
Nuages Nuageux 5000 ft
Couvert 8000 ft
Point de rosée 54 ° F
Humidité 84%
Précipitations 0.00 pouce
Profondeur de la couche neigeuse Non disponible.
7:27 AM 7:18 PM
Lune descendante, 5% visible
METAR KDTW 281453Z 00000KT 7SM -RA BKN050 OVC080 14/12 A2989 RMK AO2 SLP123 P0003 60003 T01440117 50017
Pression 29.90 pouce
Visibilité 7.0 Miles terrestres
Nuages Nuageux 5000 ft
Couvert 8000 ft
Point de rosée 54 ° F
Humidité 84%
Précipitations 0.00 pouce
Profondeur de la couche neigeuse Non disponible.
7:27 AM 7:18 PM
Lune descendante, 5% visible
METAR KDTW 281453Z 00000KT 7SM -RA BKN050 OVC080 14/12 A2989 RMK AO2 SLP123 P0003 60003 T01440117 50017

10-Day Weather Forecast

Almanac

Astronomie

Sep. 28, 2016 Lever Coucher
Temps réel
Crépuscule civil
Crépuscule nautique
Crépuscule astronomique
Lune
Durée de lumière visible
Longueur du jour
Tomorrow will be .
, % of the Moon is Illuminated

Extrêmes aujourd'hui

State Highs State Lows

Community

WunderPhotos

Upload Photos

1,942,279 Photos téléchargées !

WunderBlog® & News

Nearby

Qualité de l'air

  Qualité de l'air Indice de la qualité de l'air Polluant
Not available.

Épaisseur de neige

Station Depth Altitude

Activité sismique

Ville Distance Mag. Time & Date
Minimum magnitude displayed is 2.5.

Températures des eaux côtières

Lieu Température

Stations

Stations météo à proximité

Emplacement de la station Température Refroidissement éolien Point de rosée Humidité Vent Precip. Alt. Mise à jour Type
                   

Watches & Warnings

There are currently no watches in effect.